sensor_id;sensor_type;location;lat;lon;timestamp;temperature;humidity
40123;DHT22;25832;45.490;4.912;2022-07-22T00:02:10;19.50;94.50
40123;DHT22;25832;45.490;4.912;2022-07-22T00:04:35;19.40;95.00
40123;DHT22;25832;45.490;4.912;2022-07-22T00:07:01;19.30;95.10
40123;DHT22;25832;45.490;4.912;2022-07-22T00:09:27;19.20;95.40
40123;DHT22;25832;45.490;4.912;2022-07-22T00:11:53;19.00;95.60
40123;DHT22;25832;45.490;4.912;2022-07-22T00:14:18;18.80;96.50
40123;DHT22;25832;45.490;4.912;2022-07-22T00:16:44;18.70;97.20
40123;DHT22;25832;45.490;4.912;2022-07-22T00:19:10;18.60;97.40
40123;DHT22;25832;45.490;4.912;2022-07-22T00:21:36;18.50;97.50
40123;DHT22;25832;45.490;4.912;2022-07-22T00:24:02;18.40;97.90
40123;DHT22;25832;45.490;4.912;2022-07-22T00:26:28;18.40;98.20
40123;DHT22;25832;45.490;4.912;2022-07-22T00:28:53;18.30;98.50
40123;DHT22;25832;45.490;4.912;2022-07-22T00:31:20;18.30;98.60
40123;DHT22;25832;45.490;4.912;2022-07-22T00:33:46;18.30;98.90
40123;DHT22;25832;45.490;4.912;2022-07-22T00:36:11;18.30;99.30
40123;DHT22;25832;45.490;4.912;2022-07-22T00:38:38;18.30;98.80
40123;DHT22;25832;45.490;4.912;2022-07-22T00:41:04;18.30;99.20
40123;DHT22;25832;45.490;4.912;2022-07-22T00:44:08;18.30;99.30
40123;DHT22;25832;45.490;4.912;2022-07-22T00:46:36;18.30;99.40
40123;DHT22;25832;45.490;4.912;2022-07-22T00:49:05;18.30;99.40
40123;DHT22;25832;45.490;4.912;2022-07-22T00:51:30;18.30;99.70
40123;DHT22;25832;45.490;4.912;2022-07-22T00:53:57;18.20;99.60
40123;DHT22;25832;45.490;4.912;2022-07-22T00:56:24;18.20;99.60
40123;DHT22;25832;45.490;4.912;2022-07-22T00:58:52;18.20;99.70
40123;DHT22;25832;45.490;4.912;2022-07-22T01:01:19;18.10;99.70
40123;DHT22;25832;45.490;4.912;2022-07-22T01:03:45;18.00;99.80
40123;DHT22;25832;45.490;4.912;2022-07-22T01:06:11;18.00;99.90
40123;DHT22;25832;45.490;4.912;2022-07-22T01:08:38;17.90;99.90
40123;DHT22;25832;45.490;4.912;2022-07-22T01:11:15;17.80;99.90
40123;DHT22;25832;45.490;4.912;2022-07-22T01:13:41;17.80;99.90
40123;DHT22;25832;45.490;4.912;2022-07-22T01:16:09;17.80;99.90
40123;DHT22;25832;45.490;4.912;2022-07-22T01:18:36;17.80;99.90
40123;DHT22;25832;45.490;4.912;2022-07-22T01:21:03;17.80;99.90
40123;DHT22;25832;45.490;4.912;2022-07-22T01:23:29;17.80;99.90
40123;DHT22;25832;45.490;4.912;2022-07-22T01:25:55;17.80;99.90
40123;DHT22;25832;45.490;4.912;2022-07-22T01:28:22;17.80;99.90
40123;DHT22;25832;45.490;4.912;2022-07-22T01:30:48;17.80;99.90
40123;DHT22;25832;45.490;4.912;2022-07-22T01:33:16;17.80;99.90
40123;DHT22;25832;45.490;4.912;2022-07-22T01:35:42;17.80;99.90
40123;DHT22;25832;45.490;4.912;2022-07-22T01:38:08;17.80;99.90
40123;DHT22;25832;45.490;4.912;2022-07-22T01:40:33;17.70;99.90
40123;DHT22;25832;45.490;4.912;2022-07-22T01:42:59;17.70;99.90
40123;DHT22;25832;45.490;4.912;2022-07-22T01:45:25;17.60;99.90
40123;DHT22;25832;45.490;4.912;2022-07-22T01:47:51;17.60;99.90
40123;DHT22;25832;45.490;4.912;2022-07-22T01:50:16;17.60;99.90
40123;DHT22;25832;45.490;4.912;2022-07-22T01:52:42;17.70;99.90
40123;DHT22;25832;45.490;4.912;2022-07-22T01:55:08;17.70;99.90
40123;DHT22;25832;45.490;4.912;2022-07-22T01:57:35;17.60;99.90
40123;DHT22;25832;45.490;4.912;2022-07-22T02:00:04;17.60;99.90
40123;DHT22;25832;45.490;4.912;2022-07-22T02:02:29;17.60;99.90
40123;DHT22;25832;45.490;4.912;2022-07-22T02:04:55;17.60;99.90
40123;DHT22;25832;45.490;4.912;2022-07-22T02:07:21;17.60;99.90
40123;DHT22;25832;45.490;4.912;2022-07-22T02:09:47;17.50;99.90
40123;DHT22;25832;45.490;4.912;2022-07-22T02:12:12;17.50;99.90
40123;DHT22;25832;45.490;4.912;2022-07-22T02:14:38;17.50;99.90
40123;DHT22;25832;45.490;4.912;2022-07-22T02:17:03;17.50;99.90
40123;DHT22;25832;45.490;4.912;2022-07-22T02:19:29;17.50;99.90
40123;DHT22;25832;45.490;4.912;2022-07-22T02:21:55;17.60;99.90
40123;DHT22;25832;45.490;4.912;2022-07-22T02:24:20;17.60;99.90
40123;DHT22;25832;45.490;4.912;2022-07-22T02:26:47;17.60;99.90
40123;DHT22;25832;45.490;4.912;2022-07-22T02:29:12;17.50;99.90
40123;DHT22;25832;45.490;4.912;2022-07-22T02:31:38;17.50;99.90
40123;DHT22;25832;45.490;4.912;2022-07-22T02:34:04;17.40;99.90
40123;DHT22;25832;45.490;4.912;2022-07-22T02:36:29;17.40;99.90
40123;DHT22;25832;45.490;4.912;2022-07-22T02:38:55;17.30;99.90
40123;DHT22;25832;45.490;4.912;2022-07-22T02:41:20;17.20;99.90
40123;DHT22;25832;45.490;4.912;2022-07-22T02:43:46;17.10;99.90
40123;DHT22;25832;45.490;4.912;2022-07-22T02:46:12;17.10;99.90
40123;DHT22;25832;45.490;4.912;2022-07-22T02:48:37;17.10;99.90
40123;DHT22;25832;45.490;4.912;2022-07-22T02:51:03;17.10;99.90
40123;DHT22;25832;45.490;4.912;2022-07-22T02:53:29;17.10;99.90
40123;DHT22;25832;45.490;4.912;2022-07-22T02:55:54;17.10;99.90
40123;DHT22;25832;45.490;4.912;2022-07-22T02:58:20;17.10;99.90
40123;DHT22;25832;45.490;4.912;2022-07-22T03:00:46;17.10;99.90
40123;DHT22;25832;45.490;4.912;2022-07-22T03:03:12;17.10;99.90
40123;DHT22;25832;45.490;4.912;2022-07-22T03:05:37;17.10;99.90
40123;DHT22;25832;45.490;4.912;2022-07-22T03:08:03;17.00;99.90
40123;DHT22;25832;45.490;4.912;2022-07-22T03:10:29;16.90;99.90
40123;DHT22;25832;45.490;4.912;2022-07-22T03:12:54;16.90;99.90
40123;DHT22;25832;45.490;4.912;2022-07-22T03:15:20;16.80;99.90
40123;DHT22;25832;45.490;4.912;2022-07-22T03:17:46;16.80;99.90
40123;DHT22;25832;45.490;4.912;2022-07-22T03:20:11;16.80;99.90
40123;DHT22;25832;45.490;4.912;2022-07-22T03:22:38;16.70;99.90
40123;DHT22;25832;45.490;4.912;2022-07-22T03:25:04;16.70;99.90
40123;DHT22;25832;45.490;4.912;2022-07-22T03:27:30;16.80;99.90
40123;DHT22;25832;45.490;4.912;2022-07-22T03:29:55;16.80;99.90
40123;DHT22;25832;45.490;4.912;2022-07-22T03:32:21;16.80;99.90
40123;DHT22;25832;45.490;4.912;2022-07-22T03:34:47;16.80;99.90
40123;DHT22;25832;45.490;4.912;2022-07-22T03:37:12;16.80;99.90
40123;DHT22;25832;45.490;4.912;2022-07-22T03:39:38;16.80;99.90
40123;DHT22;25832;45.490;4.912;2022-07-22T03:42:04;16.70;99.90
40123;DHT22;25832;45.490;4.912;2022-07-22T03:44:29;16.60;99.90
40123;DHT22;25832;45.490;4.912;2022-07-22T03:46:55;16.70;99.90
40123;DHT22;25832;45.490;4.912;2022-07-22T03:49:21;16.70;99.90
40123;DHT22;25832;45.490;4.912;2022-07-22T03:51:46;16.70;99.90
40123;DHT22;25832;45.490;4.912;2022-07-22T03:54:12;16.60;99.90
40123;DHT22;25832;45.490;4.912;2022-07-22T03:56:38;16.60;99.90
40123;DHT22;25832;45.490;4.912;2022-07-22T03:59:04;16.60;99.90
40123;DHT22;25832;45.490;4.912;2022-07-22T04:01:29;16.60;99.90
40123;DHT22;25832;45.490;4.912;2022-07-22T04:03:55;16.60;99.90
40123;DHT22;25832;45.490;4.912;2022-07-22T04:06:21;16.60;99.90
40123;DHT22;25832;45.490;4.912;2022-07-22T04:08:47;16.60;99.90
40123;DHT22;25832;45.490;4.912;2022-07-22T04:11:12;16.60;99.90
40123;DHT22;25832;45.490;4.912;2022-07-22T04:13:38;16.70;99.90
40123;DHT22;25832;45.490;4.912;2022-07-22T04:16:04;16.70;99.90
40123;DHT22;25832;45.490;4.912;2022-07-22T04:18:31;16.70;99.90
40123;DHT22;25832;45.490;4.912;2022-07-22T04:20:56;16.60;99.90
40123;DHT22;25832;45.490;4.912;2022-07-22T04:23:22;16.50;99.90
40123;DHT22;25832;45.490;4.912;2022-07-22T04:25:48;16.40;99.90
40123;DHT22;25832;45.490;4.912;2022-07-22T04:28:13;16.40;99.90
40123;DHT22;25832;45.490;4.912;2022-07-22T04:30:39;16.40;99.90
40123;DHT22;25832;45.490;4.912;2022-07-22T04:33:05;16.40;99.90
40123;DHT22;25832;45.490;4.912;2022-07-22T04:35:30;16.40;99.90
40123;DHT22;25832;45.490;4.912;2022-07-22T04:37:56;16.40;99.90
40123;DHT22;25832;45.490;4.912;2022-07-22T04:40:22;16.50;99.90
40123;DHT22;25832;45.490;4.912;2022-07-22T04:42:47;16.60;99.90
40123;DHT22;25832;45.490;4.912;2022-07-22T04:45:13;16.70;99.90
40123;DHT22;25832;45.490;4.912;2022-07-22T04:47:39;16.60;99.90
40123;DHT22;25832;45.490;4.912;2022-07-22T04:50:05;16.60;99.90
40123;DHT22;25832;45.490;4.912;2022-07-22T04:52:31;16.60;99.90
40123;DHT22;25832;45.490;4.912;2022-07-22T04:54:56;16.70;99.90
40123;DHT22;25832;45.490;4.912;2022-07-22T04:57:25;16.80;99.90
40123;DHT22;25832;45.490;4.912;2022-07-22T04:59:52;16.90;99.90
40123;DHT22;25832;45.490;4.912;2022-07-22T05:02:17;17.10;99.90
40123;DHT22;25832;45.490;4.912;2022-07-22T05:04:43;17.30;99.90
40123;DHT22;25832;45.490;4.912;2022-07-22T05:07:09;17.60;99.90
40123;DHT22;25832;45.490;4.912;2022-07-22T05:09:34;17.90;99.90
40123;DHT22;25832;45.490;4.912;2022-07-22T05:12:00;18.10;99.90
40123;DHT22;25832;45.490;4.912;2022-07-22T05:14:26;18.40;99.90
40123;DHT22;25832;45.490;4.912;2022-07-22T05:16:51;18.60;99.90
40123;DHT22;25832;45.490;4.912;2022-07-22T05:19:17;18.90;99.90
40123;DHT22;25832;45.490;4.912;2022-07-22T05:21:43;19.10;99.90
40123;DHT22;25832;45.490;4.912;2022-07-22T05:24:08;19.40;99.90
40123;DHT22;25832;45.490;4.912;2022-07-22T05:26:34;19.70;99.90
40123;DHT22;25832;45.490;4.912;2022-07-22T05:29:00;19.90;99.90
40123;DHT22;25832;45.490;4.912;2022-07-22T05:31:25;20.20;99.40
40123;DHT22;25832;45.490;4.912;2022-07-22T05:33:51;20.40;99.70
40123;DHT22;25832;45.490;4.912;2022-07-22T05:36:17;20.70;99.00
40123;DHT22;25832;45.490;4.912;2022-07-22T05:38:43;20.80;98.60
40123;DHT22;25832;45.490;4.912;2022-07-22T05:41:09;21.10;98.40
40123;DHT22;25832;45.490;4.912;2022-07-22T05:43:34;21.20;97.60
40123;DHT22;25832;45.490;4.912;2022-07-22T05:46:00;21.30;97.00
40123;DHT22;25832;45.490;4.912;2022-07-22T05:48:26;21.40;97.20
40123;DHT22;25832;45.490;4.912;2022-07-22T05:50:51;21.50;96.60
40123;DHT22;25832;45.490;4.912;2022-07-22T05:53:17;21.60;96.00
40123;DHT22;25832;45.490;4.912;2022-07-22T05:55:43;21.70;96.80
40123;DHT22;25832;45.490;4.912;2022-07-22T05:58:09;22.00;96.60
40123;DHT22;25832;45.490;4.912;2022-07-22T06:00:34;22.10;96.10
40123;DHT22;25832;45.490;4.912;2022-07-22T06:03:00;22.10;96.20
40123;DHT22;25832;45.490;4.912;2022-07-22T06:05:26;22.30;96.40
40123;DHT22;25832;45.490;4.912;2022-07-22T06:07:52;22.50;95.60
40123;DHT22;25832;45.490;4.912;2022-07-22T06:10:17;22.60;94.90
40123;DHT22;25832;45.490;4.912;2022-07-22T06:12:43;22.80;95.00
40123;DHT22;25832;45.490;4.912;2022-07-22T06:15:09;22.90;94.60
40123;DHT22;25832;45.490;4.912;2022-07-22T06:17:35;23.10;94.40
40123;DHT22;25832;45.490;4.912;2022-07-22T06:20:00;23.40;94.40
40123;DHT22;25832;45.490;4.912;2022-07-22T06:22:26;23.60;93.50
40123;DHT22;25832;45.490;4.912;2022-07-22T06:24:52;23.80;93.10
40123;DHT22;25832;45.490;4.912;2022-07-22T06:27:18;24.00;92.70
40123;DHT22;25832;45.490;4.912;2022-07-22T06:29:45;24.20;93.70
40123;DHT22;25832;45.490;4.912;2022-07-22T06:32:11;24.40;92.20
40123;DHT22;25832;45.490;4.912;2022-07-22T06:34:36;24.60;91.40
40123;DHT22;25832;45.490;4.912;2022-07-22T06:37:02;24.90;91.10
40123;DHT22;25832;45.490;4.912;2022-07-22T06:39:28;25.20;90.70
40123;DHT22;25832;45.490;4.912;2022-07-22T06:41:54;25.40;88.20
40123;DHT22;25832;45.490;4.912;2022-07-22T06:44:19;25.30;87.00
40123;DHT22;25832;45.490;4.912;2022-07-22T06:46:45;25.20;85.30
40123;DHT22;25832;45.490;4.912;2022-07-22T06:49:11;25.10;85.80
40123;DHT22;25832;45.490;4.912;2022-07-22T06:51:37;25.10;86.70
40123;DHT22;25832;45.490;4.912;2022-07-22T06:54:03;25.20;86.40
40123;DHT22;25832;45.490;4.912;2022-07-22T06:56:28;25.40;85.10
40123;DHT22;25832;45.490;4.912;2022-07-22T06:58:54;25.60;84.20
40123;DHT22;25832;45.490;4.912;2022-07-22T07:01:20;25.70;83.60
40123;DHT22;25832;45.490;4.912;2022-07-22T07:03:45;25.90;83.80
40123;DHT22;25832;45.490;4.912;2022-07-22T07:06:11;26.00;83.00
40123;DHT22;25832;45.490;4.912;2022-07-22T07:08:38;26.20;83.80
40123;DHT22;25832;45.490;4.912;2022-07-22T07:11:04;26.30;82.40
40123;DHT22;25832;45.490;4.912;2022-07-22T07:13:30;26.60;81.70
40123;DHT22;25832;45.490;4.912;2022-07-22T07:15:56;26.80;80.20
40123;DHT22;25832;45.490;4.912;2022-07-22T07:18:22;26.90;80.10
40123;DHT22;25832;45.490;4.912;2022-07-22T07:20:47;26.80;79.60
40123;DHT22;25832;45.490;4.912;2022-07-22T07:23:14;26.80;80.30
40123;DHT22;25832;45.490;4.912;2022-07-22T07:25:40;26.80;79.80
40123;DHT22;25832;45.490;4.912;2022-07-22T07:28:06;26.90;79.20
40123;DHT22;25832;45.490;4.912;2022-07-22T07:30:32;27.00;78.30
40123;DHT22;25832;45.490;4.912;2022-07-22T07:32:57;27.30;79.00
40123;DHT22;25832;45.490;4.912;2022-07-22T07:35:26;27.40;77.40
40123;DHT22;25832;45.490;4.912;2022-07-22T07:37:52;27.50;76.90
40123;DHT22;25832;45.490;4.912;2022-07-22T07:40:18;27.70;77.00
40123;DHT22;25832;45.490;4.912;2022-07-22T07:42:44;27.80;78.30
40123;DHT22;25832;45.490;4.912;2022-07-22T07:45:10;28.00;75.90
40123;DHT22;25832;45.490;4.912;2022-07-22T07:47:36;28.00;75.90
40123;DHT22;25832;45.490;4.912;2022-07-22T07:50:06;28.20;76.60
40123;DHT22;25832;45.490;4.912;2022-07-22T07:52:40;28.40;74.80
40123;DHT22;25832;45.490;4.912;2022-07-22T07:55:06;28.40;74.80
40123;DHT22;25832;45.490;4.912;2022-07-22T07:57:33;28.40;74.20
40123;DHT22;25832;45.490;4.912;2022-07-22T07:59:59;28.40;76.00
40123;DHT22;25832;45.490;4.912;2022-07-22T08:02:24;28.50;76.40
40123;DHT22;25832;45.490;4.912;2022-07-22T08:04:50;28.60;75.10
40123;DHT22;25832;45.490;4.912;2022-07-22T08:07:15;28.70;75.00
40123;DHT22;25832;45.490;4.912;2022-07-22T08:09:41;28.90;75.00
40123;DHT22;25832;45.490;4.912;2022-07-22T08:12:07;29.20;74.80
40123;DHT22;25832;45.490;4.912;2022-07-22T08:14:33;29.40;73.40
40123;DHT22;25832;45.490;4.912;2022-07-22T08:16:59;29.30;72.40
40123;DHT22;25832;45.490;4.912;2022-07-22T08:19:24;29.40;72.90
40123;DHT22;25832;45.490;4.912;2022-07-22T08:21:50;29.30;72.70
40123;DHT22;25832;45.490;4.912;2022-07-22T08:24:16;29.30;72.00
40123;DHT22;25832;45.490;4.912;2022-07-22T08:26:41;29.30;73.70
40123;DHT22;25832;45.490;4.912;2022-07-22T08:29:07;29.50;72.50
40123;DHT22;25832;45.490;4.912;2022-07-22T08:31:35;29.60;72.70
40123;DHT22;25832;45.490;4.912;2022-07-22T08:34:04;29.70;73.00
40123;DHT22;25832;45.490;4.912;2022-07-22T08:36:30;29.80;71.90
40123;DHT22;25832;45.490;4.912;2022-07-22T08:38:56;30.00;72.20
40123;DHT22;25832;45.490;4.912;2022-07-22T08:41:23;30.10;71.40
40123;DHT22;25832;45.490;4.912;2022-07-22T08:43:50;30.20;71.70
40123;DHT22;25832;45.490;4.912;2022-07-22T08:46:16;30.40;71.20
40123;DHT22;25832;45.490;4.912;2022-07-22T08:48:42;30.30;71.00
40123;DHT22;25832;45.490;4.912;2022-07-22T08:51:09;30.20;71.20
40123;DHT22;25832;45.490;4.912;2022-07-22T08:53:34;30.10;71.10
40123;DHT22;25832;45.490;4.912;2022-07-22T08:56:00;30.10;71.40
40123;DHT22;25832;45.490;4.912;2022-07-22T08:58:26;30.30;72.10
40123;DHT22;25832;45.490;4.912;2022-07-22T09:01:05;30.40;71.50
40123;DHT22;25832;45.490;4.912;2022-07-22T09:03:31;30.40;70.90
40123;DHT22;25832;45.490;4.912;2022-07-22T09:05:57;30.50;72.10
40123;DHT22;25832;45.490;4.912;2022-07-22T09:08:24;30.70;72.40
40123;DHT22;25832;45.490;4.912;2022-07-22T09:10:50;30.70;70.40
40123;DHT22;25832;45.490;4.912;2022-07-22T09:13:16;30.70;70.20
40123;DHT22;25832;45.490;4.912;2022-07-22T09:15:51;30.70;69.90
40123;DHT22;25832;45.490;4.912;2022-07-22T09:18:17;30.80;70.70
40123;DHT22;25832;45.490;4.912;2022-07-22T09:20:43;31.00;71.10
40123;DHT22;25832;45.490;4.912;2022-07-22T09:23:17;31.20;70.80
40123;DHT22;25832;45.490;4.912;2022-07-22T09:25:47;31.50;71.30
40123;DHT22;25832;45.490;4.912;2022-07-22T09:28:19;31.90;70.40
40123;DHT22;25832;45.490;4.912;2022-07-22T09:30:50;32.10;69.80
40123;DHT22;25832;45.490;4.912;2022-07-22T09:33:17;32.40;70.20
40123;DHT22;25832;45.490;4.912;2022-07-22T09:35:44;32.50;67.90
40123;DHT22;25832;45.490;4.912;2022-07-22T09:38:11;32.60;68.70
40123;DHT22;25832;45.490;4.912;2022-07-22T09:40:40;32.80;68.10
40123;DHT22;25832;45.490;4.912;2022-07-22T09:43:14;32.90;67.90
40123;DHT22;25832;45.490;4.912;2022-07-22T09:48:11;32.80;68.20
40123;DHT22;25832;45.490;4.912;2022-07-22T09:50:37;33.00;67.50
40123;DHT22;25832;45.490;4.912;2022-07-22T09:53:03;33.20;66.80
40123;DHT22;25832;45.490;4.912;2022-07-22T09:55:29;33.30;67.00
40123;DHT22;25832;45.490;4.912;2022-07-22T09:57:56;33.20;66.80
40123;DHT22;25832;45.490;4.912;2022-07-22T10:00:25;33.00;66.60
40123;DHT22;25832;45.490;4.912;2022-07-22T10:05:19;33.10;66.40
40123;DHT22;25832;45.490;4.912;2022-07-22T10:07:47;33.30;66.40
40123;DHT22;25832;45.490;4.912;2022-07-22T10:10:17;33.60;66.00
40123;DHT22;25832;45.490;4.912;2022-07-22T10:12:44;33.90;65.90
40123;DHT22;25832;45.490;4.912;2022-07-22T10:15:11;34.10;65.70
40123;DHT22;25832;45.490;4.912;2022-07-22T10:17:38;34.20;64.80
40123;DHT22;25832;45.490;4.912;2022-07-22T10:20:06;34.40;63.60
40123;DHT22;25832;45.490;4.912;2022-07-22T10:25:05;34.60;63.00
40123;DHT22;25832;45.490;4.912;2022-07-22T10:28:04;34.70;63.40
40123;DHT22;25832;45.490;4.912;2022-07-22T10:30:36;34.60;62.60
40123;DHT22;25832;45.490;4.912;2022-07-22T10:33:11;34.60;62.30
40123;DHT22;25832;45.490;4.912;2022-07-22T10:38:24;34.90;63.10
40123;DHT22;25832;45.490;4.912;2022-07-22T10:41:06;35.00;61.50
40123;DHT22;25832;45.490;4.912;2022-07-22T10:46:07;35.00;60.10
40123;DHT22;25832;45.490;4.912;2022-07-22T10:51:21;34.90;59.30
40123;DHT22;25832;45.490;4.912;2022-07-22T10:54:01;34.90;60.20
40123;DHT22;25832;45.490;4.912;2022-07-22T10:56:29;35.00;61.50
40123;DHT22;25832;45.490;4.912;2022-07-22T10:59:25;34.90;60.00
40123;DHT22;25832;45.490;4.912;2022-07-22T11:01:52;35.10;60.10
40123;DHT22;25832;45.490;4.912;2022-07-22T11:06:46;35.30;59.70
40123;DHT22;25832;45.490;4.912;2022-07-22T11:09:13;35.40;58.90
40123;DHT22;25832;45.490;4.912;2022-07-22T11:11:51;35.40;59.20
40123;DHT22;25832;45.490;4.912;2022-07-22T11:16:49;35.60;59.00
40123;DHT22;25832;45.490;4.912;2022-07-22T11:19:20;35.60;58.80
40123;DHT22;25832;45.490;4.912;2022-07-22T11:21:50;35.80;57.10
40123;DHT22;25832;45.490;4.912;2022-07-22T11:24:17;35.80;57.00
40123;DHT22;25832;45.490;4.912;2022-07-22T11:26:46;35.90;56.80
40123;DHT22;25832;45.490;4.912;2022-07-22T11:29:23;36.00;57.20
40123;DHT22;25832;45.490;4.912;2022-07-22T11:31:49;36.10;57.40
40123;DHT22;25832;45.490;4.912;2022-07-22T11:34:15;36.20;57.70
40123;DHT22;25832;45.490;4.912;2022-07-22T11:36:44;36.40;56.10
40123;DHT22;25832;45.490;4.912;2022-07-22T11:39:13;36.40;56.70
40123;DHT22;25832;45.490;4.912;2022-07-22T11:41:39;36.40;56.50
40123;DHT22;25832;45.490;4.912;2022-07-22T11:44:06;36.60;55.80
40123;DHT22;25832;45.490;4.912;2022-07-22T11:46:40;36.70;56.40
40123;DHT22;25832;45.490;4.912;2022-07-22T11:49:07;36.90;56.60
40123;DHT22;25832;45.490;4.912;2022-07-22T11:51:35;37.00;56.30
40123;DHT22;25832;45.490;4.912;2022-07-22T11:54:01;37.20;55.20
40123;DHT22;25832;45.490;4.912;2022-07-22T11:56:27;37.20;56.30
40123;DHT22;25832;45.490;4.912;2022-07-22T11:58:54;37.30;56.30
40123;DHT22;25832;45.490;4.912;2022-07-22T12:01:22;37.30;56.10
40123;DHT22;25832;45.490;4.912;2022-07-22T12:03:53;37.30;54.70
40123;DHT22;25832;45.490;4.912;2022-07-22T12:06:21;37.30;55.50
40123;DHT22;25832;45.490;4.912;2022-07-22T12:08:54;37.30;54.50
40123;DHT22;25832;45.490;4.912;2022-07-22T12:11:22;37.40;54.40
40123;DHT22;25832;45.490;4.912;2022-07-22T12:13:50;37.40;53.30
40123;DHT22;25832;45.490;4.912;2022-07-22T12:16:29;37.50;54.20
40123;DHT22;25832;45.490;4.912;2022-07-22T12:18:59;37.60;53.90
40123;DHT22;25832;45.490;4.912;2022-07-22T12:21:26;37.70;52.60
40123;DHT22;25832;45.490;4.912;2022-07-22T12:24:07;37.60;51.40
40123;DHT22;25832;45.490;4.912;2022-07-22T12:26:48;37.70;52.80
40123;DHT22;25832;45.490;4.912;2022-07-22T12:31:53;37.80;52.00
40123;DHT22;25832;45.490;4.912;2022-07-22T12:37:13;38.20;52.00
40123;DHT22;25832;45.490;4.912;2022-07-22T12:39:40;38.30;52.20
40123;DHT22;25832;45.490;4.912;2022-07-22T12:42:17;38.30;48.60
40123;DHT22;25832;45.490;4.912;2022-07-22T12:45:10;38.20;48.60
40123;DHT22;25832;45.490;4.912;2022-07-22T12:52:59;37.70;49.50
40123;DHT22;25832;45.490;4.912;2022-07-22T12:55:26;37.70;50.60
40123;DHT22;25832;45.490;4.912;2022-07-22T12:57:52;37.80;50.70
40123;DHT22;25832;45.490;4.912;2022-07-22T13:00:24;38.00;51.80
40123;DHT22;25832;45.490;4.912;2022-07-22T13:02:51;38.10;51.10
40123;DHT22;25832;45.490;4.912;2022-07-22T13:05:17;38.10;51.00
40123;DHT22;25832;45.490;4.912;2022-07-22T13:07:43;38.10;50.70
40123;DHT22;25832;45.490;4.912;2022-07-22T13:10:10;38.20;49.10
40123;DHT22;25832;45.490;4.912;2022-07-22T13:12:36;38.10;48.20
40123;DHT22;25832;45.490;4.912;2022-07-22T13:15:02;38.10;48.10
40123;DHT22;25832;45.490;4.912;2022-07-22T13:17:28;38.20;48.50
40123;DHT22;25832;45.490;4.912;2022-07-22T13:19:54;38.20;47.50
40123;DHT22;25832;45.490;4.912;2022-07-22T13:22:19;38.30;48.70
40123;DHT22;25832;45.490;4.912;2022-07-22T13:24:45;38.50;48.60
40123;DHT22;25832;45.490;4.912;2022-07-22T13:27:11;38.50;47.40
40123;DHT22;25832;45.490;4.912;2022-07-22T13:29:37;38.60;47.90
40123;DHT22;25832;45.490;4.912;2022-07-22T13:32:02;38.70;47.30
40123;DHT22;25832;45.490;4.912;2022-07-22T13:34:28;38.70;46.70
40123;DHT22;25832;45.490;4.912;2022-07-22T13:36:54;38.80;46.80
40123;DHT22;25832;45.490;4.912;2022-07-22T13:39:21;38.90;45.30
40123;DHT22;25832;45.490;4.912;2022-07-22T13:41:47;39.00;45.10
40123;DHT22;25832;45.490;4.912;2022-07-22T13:44:12;39.10;43.50
40123;DHT22;25832;45.490;4.912;2022-07-22T13:46:38;38.90;44.50
40123;DHT22;25832;45.490;4.912;2022-07-22T13:49:04;38.90;44.70
40123;DHT22;25832;45.490;4.912;2022-07-22T13:51:29;39.00;44.80
40123;DHT22;25832;45.490;4.912;2022-07-22T13:53:56;39.10;41.50
40123;DHT22;25832;45.490;4.912;2022-07-22T13:56:22;39.20;43.20
40123;DHT22;25832;45.490;4.912;2022-07-22T13:58:48;39.30;42.50
40123;DHT22;25832;45.490;4.912;2022-07-22T14:01:13;39.30;41.80
40123;DHT22;25832;45.490;4.912;2022-07-22T14:03:39;39.40;40.00
40123;DHT22;25832;45.490;4.912;2022-07-22T14:06:05;39.50;41.80
40123;DHT22;25832;45.490;4.912;2022-07-22T14:08:31;39.70;42.00
40123;DHT22;25832;45.490;4.912;2022-07-22T14:10:57;39.70;43.20
40123;DHT22;25832;45.490;4.912;2022-07-22T14:13:23;39.60;44.10
40123;DHT22;25832;45.490;4.912;2022-07-22T14:15:49;39.40;44.00
40123;DHT22;25832;45.490;4.912;2022-07-22T14:18:15;39.20;43.40
40123;DHT22;25832;45.490;4.912;2022-07-22T14:20:41;39.00;43.10
40123;DHT22;25832;45.490;4.912;2022-07-22T14:23:07;38.80;43.20
40123;DHT22;25832;45.490;4.912;2022-07-22T14:25:36;38.60;42.80
40123;DHT22;25832;45.490;4.912;2022-07-22T14:28:03;38.50;43.20
40123;DHT22;25832;45.490;4.912;2022-07-22T14:30:29;38.50;43.40
40123;DHT22;25832;45.490;4.912;2022-07-22T14:32:55;38.40;44.00
40123;DHT22;25832;45.490;4.912;2022-07-22T14:35:21;38.20;44.40
40123;DHT22;25832;45.490;4.912;2022-07-22T14:37:47;38.10;44.90
40123;DHT22;25832;45.490;4.912;2022-07-22T14:40:13;38.10;45.00
40123;DHT22;25832;45.490;4.912;2022-07-22T14:42:38;38.00;44.60
40123;DHT22;25832;45.490;4.912;2022-07-22T14:45:06;38.10;44.90
40123;DHT22;25832;45.490;4.912;2022-07-22T14:47:31;38.10;43.20
40123;DHT22;25832;45.490;4.912;2022-07-22T14:49:57;38.10;43.50
40123;DHT22;25832;45.490;4.912;2022-07-22T14:52:23;38.00;42.90
40123;DHT22;25832;45.490;4.912;2022-07-22T14:54:48;37.90;43.60
40123;DHT22;25832;45.490;4.912;2022-07-22T14:57:14;37.80;43.80
40123;DHT22;25832;45.490;4.912;2022-07-22T14:59:40;37.60;45.00
40123;DHT22;25832;45.490;4.912;2022-07-22T15:02:06;37.30;44.30
40123;DHT22;25832;45.490;4.912;2022-07-22T15:04:32;37.00;44.50
40123;DHT22;25832;45.490;4.912;2022-07-22T15:06:57;36.80;44.00
40123;DHT22;25832;45.490;4.912;2022-07-22T15:09:23;36.60;45.10
40123;DHT22;25832;45.490;4.912;2022-07-22T15:11:49;36.50;46.10
40123;DHT22;25832;45.490;4.912;2022-07-22T15:14:15;36.30;46.30
40123;DHT22;25832;45.490;4.912;2022-07-22T15:16:41;36.20;45.20
40123;DHT22;25832;45.490;4.912;2022-07-22T15:19:07;36.10;46.40
40123;DHT22;25832;45.490;4.912;2022-07-22T15:21:32;36.00;46.40
40123;DHT22;25832;45.490;4.912;2022-07-22T15:23:58;35.90;47.10
40123;DHT22;25832;45.490;4.912;2022-07-22T15:26:24;35.90;46.20
40123;DHT22;25832;45.490;4.912;2022-07-22T15:28:50;35.90;47.10
40123;DHT22;25832;45.490;4.912;2022-07-22T15:31:17;35.80;48.40
40123;DHT22;25832;45.490;4.912;2022-07-22T15:33:42;35.70;48.30
40123;DHT22;25832;45.490;4.912;2022-07-22T15:36:08;35.60;47.30
40123;DHT22;25832;45.490;4.912;2022-07-22T15:38:37;35.50;47.40
40123;DHT22;25832;45.490;4.912;2022-07-22T15:41:04;35.40;49.00
40123;DHT22;25832;45.490;4.912;2022-07-22T15:43:30;35.30;50.00
40123;DHT22;25832;45.490;4.912;2022-07-22T15:45:55;35.30;52.50
40123;DHT22;25832;45.490;4.912;2022-07-22T15:48:21;35.20;52.90
40123;DHT22;25832;45.490;4.912;2022-07-22T15:50:47;35.10;54.50
40123;DHT22;25832;45.490;4.912;2022-07-22T15:53:13;35.10;55.00
40123;DHT22;25832;45.490;4.912;2022-07-22T15:55:38;35.00;54.50
40123;DHT22;25832;45.490;4.912;2022-07-22T15:58:05;35.00;54.80
40123;DHT22;25832;45.490;4.912;2022-07-22T16:00:49;34.80;54.40